sensor_id;sensor_type;location;lat;lon;timestamp;P1;durP1;ratioP1;P2;durP2;ratioP2
77769;SDS011;66961;51.482;9.160;2023-05-02T00:00:12;8.20;;;4.60;;
77769;SDS011;66961;51.482;9.160;2023-05-02T00:02:38;5.63;;;4.18;;
77769;SDS011;66961;51.482;9.160;2023-05-02T00:05:03;6.22;;;4.55;;
77769;SDS011;66961;51.482;9.160;2023-05-02T00:07:30;7.25;;;4.90;;
77769;SDS011;66961;51.482;9.160;2023-05-02T00:09:55;5.07;;;4.57;;
77769;SDS011;66961;51.482;9.160;2023-05-02T00:12:20;5.23;;;4.53;;
77769;SDS011;66961;51.482;9.160;2023-05-02T00:14:45;5.57;;;4.90;;
77769;SDS011;66961;51.482;9.160;2023-05-02T00:17:17;5.30;;;4.37;;
77769;SDS011;66961;51.482;9.160;2023-05-02T00:19:43;6.72;;;5.07;;
77769;SDS011;66961;51.482;9.160;2023-05-02T00:22:09;5.78;;;4.60;;
77769;SDS011;66961;51.482;9.160;2023-05-02T00:24:34;5.40;;;4.30;;
77769;SDS011;66961;51.482;9.160;2023-05-02T00:26:59;6.90;;;4.13;;
77769;SDS011;66961;51.482;9.160;2023-05-02T00:29:24;5.90;;;4.60;;
77769;SDS011;66961;51.482;9.160;2023-05-02T00:31:50;6.40;;;4.70;;
77769;SDS011;66961;51.482;9.160;2023-05-02T00:34:15;5.80;;;4.47;;
77769;SDS011;66961;51.482;9.160;2023-05-02T00:36:40;5.10;;;4.40;;
77769;SDS011;66961;51.482;9.160;2023-05-02T00:39:05;5.53;;;4.50;;
77769;SDS011;66961;51.482;9.160;2023-05-02T00:41:30;6.73;;;5.43;;
77769;SDS011;66961;51.482;9.160;2023-05-02T00:43:56;6.57;;;5.60;;
77769;SDS011;66961;51.482;9.160;2023-05-02T00:46:22;6.03;;;4.88;;
77769;SDS011;66961;51.482;9.160;2023-05-02T00:48:47;6.83;;;5.60;;
77769;SDS011;66961;51.482;9.160;2023-05-02T00:51:12;6.33;;;5.43;;
77769;SDS011;66961;51.482;9.160;2023-05-02T00:53:38;8.03;;;5.73;;
77769;SDS011;66961;51.482;9.160;2023-05-02T00:56:04;6.63;;;5.85;;
77769;SDS011;66961;51.482;9.160;2023-05-02T00:58:30;7.65;;;6.53;;
77769;SDS011;66961;51.482;9.160;2023-05-02T01:12:22;9.55;;;7.30;;
77769;SDS011;66961;51.482;9.160;2023-05-02T01:17:22;12.50;;;8.98;;
77769;SDS011;66961;51.482;9.160;2023-05-02T01:19:51;10.77;;;9.60;;
77769;SDS011;66961;51.482;9.160;2023-05-02T01:22:20;12.68;;;10.52;;
77769;SDS011;66961;51.482;9.160;2023-05-02T01:30:16;12.88;;;11.35;;
77769;SDS011;66961;51.482;9.160;2023-05-02T01:32:44;15.98;;;11.73;;
77769;SDS011;66961;51.482;9.160;2023-05-02T01:35:13;13.27;;;10.40;;
77769;SDS011;66961;51.482;9.160;2023-05-02T01:37:39;14.75;;;11.48;;
77769;SDS011;66961;51.482;9.160;2023-05-02T01:40:07;14.55;;;12.23;;
77769;SDS011;66961;51.482;9.160;2023-05-02T01:42:35;16.92;;;12.57;;
77769;SDS011;66961;51.482;9.160;2023-05-02T01:45:01;15.10;;;12.10;;
77769;SDS011;66961;51.482;9.160;2023-05-02T01:47:29;15.13;;;12.23;;
77769;SDS011;66961;51.482;9.160;2023-05-02T01:49:58;16.40;;;12.90;;
77769;SDS011;66961;51.482;9.160;2023-05-02T01:52:24;15.57;;;12.63;;
77769;SDS011;66961;51.482;9.160;2023-05-02T01:54:51;19.92;;;14.50;;
77769;SDS011;66961;51.482;9.160;2023-05-02T01:57:19;16.05;;;13.20;;
77769;SDS011;66961;51.482;9.160;2023-05-02T01:59:45;18.50;;;14.63;;
77769;SDS011;66961;51.482;9.160;2023-05-02T02:02:13;19.35;;;14.75;;
77769;SDS011;66961;51.482;9.160;2023-05-02T02:04:40;20.38;;;15.52;;
77769;SDS011;66961;51.482;9.160;2023-05-02T02:07:07;20.88;;;15.00;;
77769;SDS011;66961;51.482;9.160;2023-05-02T02:09:34;20.02;;;14.30;;
77769;SDS011;66961;51.482;9.160;2023-05-02T02:14:48;20.40;;;15.45;;
77769;SDS011;66961;51.482;9.160;2023-05-02T02:17:21;20.38;;;16.42;;
77769;SDS011;66961;51.482;9.160;2023-05-02T02:19:51;21.13;;;15.35;;
77769;SDS011;66961;51.482;9.160;2023-05-02T02:22:18;21.42;;;15.98;;
77769;SDS011;66961;51.482;9.160;2023-05-02T02:24:45;19.65;;;14.75;;
77769;SDS011;66961;51.482;9.160;2023-05-02T02:27:12;21.92;;;16.20;;
77769;SDS011;66961;51.482;9.160;2023-05-02T02:29:38;20.63;;;15.55;;
77769;SDS011;66961;51.482;9.160;2023-05-02T02:32:03;19.70;;;15.87;;
77769;SDS011;66961;51.482;9.160;2023-05-02T02:34:28;20.67;;;16.00;;
77769;SDS011;66961;51.482;9.160;2023-05-02T02:37:03;22.20;;;16.25;;
77769;SDS011;66961;51.482;9.160;2023-05-02T02:41:59;21.17;;;17.27;;
77769;SDS011;66961;51.482;9.160;2023-05-02T02:47:31;24.15;;;17.75;;
77769;SDS011;66961;51.482;9.160;2023-05-02T02:50:08;25.27;;;17.42;;
77769;SDS011;66961;51.482;9.160;2023-05-02T02:52:54;29.77;;;19.73;;
77769;SDS011;66961;51.482;9.160;2023-05-02T02:58:18;26.83;;;19.85;;
77769;SDS011;66961;51.482;9.160;2023-05-02T03:00:49;29.55;;;19.98;;
77769;SDS011;66961;51.482;9.160;2023-05-02T03:03:15;31.77;;;21.88;;
77769;SDS011;66961;51.482;9.160;2023-05-02T03:05:42;32.33;;;22.65;;
77769;SDS011;66961;51.482;9.160;2023-05-02T03:08:07;36.83;;;22.65;;
77769;SDS011;66961;51.482;9.160;2023-05-02T03:10:33;31.08;;;24.25;;
77769;SDS011;66961;51.482;9.160;2023-05-02T03:12:58;34.33;;;24.70;;
77769;SDS011;66961;51.482;9.160;2023-05-02T03:18:22;34.53;;;23.98;;
77769;SDS011;66961;51.482;9.160;2023-05-02T03:20:47;37.33;;;25.57;;
77769;SDS011;66961;51.482;9.160;2023-05-02T03:23:12;33.90;;;22.70;;
77769;SDS011;66961;51.482;9.160;2023-05-02T03:25:38;35.50;;;25.60;;
77769;SDS011;66961;51.482;9.160;2023-05-02T03:28:03;36.67;;;24.20;;
77769;SDS011;66961;51.482;9.160;2023-05-02T03:30:28;39.88;;;26.05;;
77769;SDS011;66961;51.482;9.160;2023-05-02T03:32:53;41.83;;;27.97;;
77769;SDS011;66961;51.482;9.160;2023-05-02T03:35:19;40.03;;;26.90;;
77769;SDS011;66961;51.482;9.160;2023-05-02T03:37:44;42.27;;;29.23;;
77769;SDS011;66961;51.482;9.160;2023-05-02T03:40:10;40.13;;;28.48;;
77769;SDS011;66961;51.482;9.160;2023-05-02T03:42:35;44.95;;;29.45;;
77769;SDS011;66961;51.482;9.160;2023-05-02T03:45:00;40.95;;;27.98;;
77769;SDS011;66961;51.482;9.160;2023-05-02T03:47:25;45.27;;;29.90;;
77769;SDS011;66961;51.482;9.160;2023-05-02T03:49:51;40.00;;;27.70;;
77769;SDS011;66961;51.482;9.160;2023-05-02T03:52:16;41.60;;;27.80;;
77769;SDS011;66961;51.482;9.160;2023-05-02T03:54:41;44.73;;;30.13;;
77769;SDS011;66961;51.482;9.160;2023-05-02T03:57:06;41.17;;;27.43;;
77769;SDS011;66961;51.482;9.160;2023-05-02T03:59:32;44.27;;;29.23;;
77769;SDS011;66961;51.482;9.160;2023-05-02T04:01:58;42.67;;;29.35;;
77769;SDS011;66961;51.482;9.160;2023-05-02T04:04:23;41.40;;;27.53;;
77769;SDS011;66961;51.482;9.160;2023-05-02T04:06:48;44.25;;;27.17;;
77769;SDS011;66961;51.482;9.160;2023-05-02T04:09:14;40.93;;;27.37;;
77769;SDS011;66961;51.482;9.160;2023-05-02T04:11:39;43.47;;;28.93;;
77769;SDS011;66961;51.482;9.160;2023-05-02T04:14:04;38.80;;;27.10;;
77769;SDS011;66961;51.482;9.160;2023-05-02T04:16:29;39.87;;;26.30;;
77769;SDS011;66961;51.482;9.160;2023-05-02T04:18:54;41.00;;;27.23;;
77769;SDS011;66961;51.482;9.160;2023-05-02T04:21:20;41.50;;;25.97;;
77769;SDS011;66961;51.482;9.160;2023-05-02T04:23:45;38.60;;;25.23;;
77769;SDS011;66961;51.482;9.160;2023-05-02T04:26:10;36.70;;;25.17;;
77769;SDS011;66961;51.482;9.160;2023-05-02T04:28:35;36.03;;;23.57;;
77769;SDS011;66961;51.482;9.160;2023-05-02T04:31:01;36.07;;;23.17;;
77769;SDS011;66961;51.482;9.160;2023-05-02T04:33:26;37.60;;;25.27;;
77769;SDS011;66961;51.482;9.160;2023-05-02T04:35:52;34.77;;;23.50;;
77769;SDS011;66961;51.482;9.160;2023-05-02T04:38:17;32.57;;;21.40;;
77769;SDS011;66961;51.482;9.160;2023-05-02T04:40:42;33.50;;;20.03;;
77769;SDS011;66961;51.482;9.160;2023-05-02T04:43:07;28.35;;;16.80;;
77769;SDS011;66961;51.482;9.160;2023-05-02T04:45:36;27.87;;;16.07;;
77769;SDS011;66961;51.482;9.160;2023-05-02T04:48:01;28.88;;;16.63;;
77769;SDS011;66961;51.482;9.160;2023-05-02T04:50:27;28.83;;;16.30;;
77769;SDS011;66961;51.482;9.160;2023-05-02T04:52:52;28.30;;;16.80;;
77769;SDS011;66961;51.482;9.160;2023-05-02T04:55:18;29.30;;;15.90;;
77769;SDS011;66961;51.482;9.160;2023-05-02T04:57:43;27.77;;;17.80;;
77769;SDS011;66961;51.482;9.160;2023-05-02T05:00:08;28.87;;;17.30;;
77769;SDS011;66961;51.482;9.160;2023-05-02T05:02:34;30.83;;;17.52;;
77769;SDS011;66961;51.482;9.160;2023-05-02T05:05:00;30.00;;;16.43;;
77769;SDS011;66961;51.482;9.160;2023-05-02T05:07:25;26.63;;;15.48;;
77769;SDS011;66961;51.482;9.160;2023-05-02T05:09:50;29.23;;;16.00;;
77769;SDS011;66961;51.482;9.160;2023-05-02T05:12:16;27.47;;;14.77;;
77769;SDS011;66961;51.482;9.160;2023-05-02T05:14:41;25.67;;;14.97;;
77769;SDS011;66961;51.482;9.160;2023-05-02T05:17:06;25.60;;;14.50;;
77769;SDS011;66961;51.482;9.160;2023-05-02T05:19:31;26.27;;;14.10;;
77769;SDS011;66961;51.482;9.160;2023-05-02T05:21:56;23.43;;;13.00;;
77769;SDS011;66961;51.482;9.160;2023-05-02T05:24:22;21.97;;;12.07;;
77769;SDS011;66961;51.482;9.160;2023-05-02T05:26:47;18.97;;;11.47;;
77769;SDS011;66961;51.482;9.160;2023-05-02T05:29:12;21.23;;;12.97;;
77769;SDS011;66961;51.482;9.160;2023-05-02T05:31:37;20.03;;;11.30;;
77769;SDS011;66961;51.482;9.160;2023-05-02T05:34:03;19.63;;;11.67;;
77769;SDS011;66961;51.482;9.160;2023-05-02T05:36:28;24.85;;;12.30;;
77769;SDS011;66961;51.482;9.160;2023-05-02T05:38:54;24.23;;;13.93;;
77769;SDS011;66961;51.482;9.160;2023-05-02T05:41:19;26.57;;;14.10;;
77769;SDS011;66961;51.482;9.160;2023-05-02T05:43:44;27.97;;;14.93;;
77769;SDS011;66961;51.482;9.160;2023-05-02T05:46:09;25.47;;;14.77;;
77769;SDS011;66961;51.482;9.160;2023-05-02T05:48:34;25.97;;;15.23;;
77769;SDS011;66961;51.482;9.160;2023-05-02T05:51:03;28.70;;;16.60;;
77769;SDS011;66961;51.482;9.160;2023-05-02T05:53:29;29.58;;;16.65;;
77769;SDS011;66961;51.482;9.160;2023-05-02T05:55:54;30.87;;;16.17;;
77769;SDS011;66961;51.482;9.160;2023-05-02T05:58:19;28.63;;;16.37;;
77769;SDS011;66961;51.482;9.160;2023-05-02T06:00:44;28.77;;;16.93;;
77769;SDS011;66961;51.482;9.160;2023-05-02T06:03:10;33.97;;;17.30;;
77769;SDS011;66961;51.482;9.160;2023-05-02T06:05:35;27.47;;;15.93;;
77769;SDS011;66961;51.482;9.160;2023-05-02T06:08:00;31.20;;;16.63;;
77769;SDS011;66961;51.482;9.160;2023-05-02T06:10:25;37.77;;;19.73;;
77769;SDS011;66961;51.482;9.160;2023-05-02T06:12:51;30.67;;;18.13;;
77769;SDS011;66961;51.482;9.160;2023-05-02T06:15:16;34.40;;;19.43;;
77769;SDS011;66961;51.482;9.160;2023-05-02T06:17:42;34.63;;;19.73;;
77769;SDS011;66961;51.482;9.160;2023-05-02T06:20:07;33.40;;;18.87;;
77769;SDS011;66961;51.482;9.160;2023-05-02T06:22:32;31.70;;;19.90;;
77769;SDS011;66961;51.482;9.160;2023-05-02T06:24:58;30.83;;;18.63;;
77769;SDS011;66961;51.482;9.160;2023-05-02T06:27:23;32.10;;;17.50;;
77769;SDS011;66961;51.482;9.160;2023-05-02T06:29:51;31.83;;;18.57;;
77769;SDS011;66961;51.482;9.160;2023-05-02T06:32:17;37.08;;;19.48;;
77769;SDS011;66961;51.482;9.160;2023-05-02T06:34:42;29.13;;;18.08;;
77769;SDS011;66961;51.482;9.160;2023-05-02T06:37:07;33.03;;;18.83;;
77769;SDS011;66961;51.482;9.160;2023-05-02T06:39:32;30.73;;;17.97;;
77769;SDS011;66961;51.482;9.160;2023-05-02T06:41:57;33.70;;;19.17;;
77769;SDS011;66961;51.482;9.160;2023-05-02T06:44:23;29.02;;;17.25;;
77769;SDS011;66961;51.482;9.160;2023-05-02T06:46:48;31.23;;;17.77;;
77769;SDS011;66961;51.482;9.160;2023-05-02T06:49:14;27.70;;;15.93;;
77769;SDS011;66961;51.482;9.160;2023-05-02T06:51:39;29.20;;;16.30;;
77769;SDS011;66961;51.482;9.160;2023-05-02T06:54:04;26.40;;;14.90;;
77769;SDS011;66961;51.482;9.160;2023-05-02T06:56:29;26.87;;;16.57;;
77769;SDS011;66961;51.482;9.160;2023-05-02T06:58:55;28.27;;;15.77;;
77769;SDS011;66961;51.482;9.160;2023-05-02T07:01:20;27.70;;;15.67;;
77769;SDS011;66961;51.482;9.160;2023-05-02T07:03:45;28.07;;;14.97;;
77769;SDS011;66961;51.482;9.160;2023-05-02T07:06:10;24.97;;;13.63;;
77769;SDS011;66961;51.482;9.160;2023-05-02T07:08:36;28.73;;;14.60;;
77769;SDS011;66961;51.482;9.160;2023-05-02T07:11:01;21.97;;;12.60;;
77769;SDS011;66961;51.482;9.160;2023-05-02T07:13:26;22.55;;;12.65;;
77769;SDS011;66961;51.482;9.160;2023-05-02T07:15:52;26.33;;;14.27;;
77769;SDS011;66961;51.482;9.160;2023-05-02T07:18:18;22.23;;;12.98;;
77769;SDS011;66961;51.482;9.160;2023-05-02T07:20:43;21.27;;;12.20;;
77769;SDS011;66961;51.482;9.160;2023-05-02T07:23:08;23.20;;;13.57;;
77769;SDS011;66961;51.482;9.160;2023-05-02T07:25:33;19.83;;;10.90;;
77769;SDS011;66961;51.482;9.160;2023-05-02T07:27:59;21.43;;;12.77;;
77769;SDS011;66961;51.482;9.160;2023-05-02T07:30:24;18.43;;;11.70;;
77769;SDS011;66961;51.482;9.160;2023-05-02T07:32:49;19.38;;;12.02;;
77769;SDS011;66961;51.482;9.160;2023-05-02T07:35:15;18.80;;;11.00;;
77769;SDS011;66961;51.482;9.160;2023-05-02T07:37:40;18.30;;;9.37;;
77769;SDS011;66961;51.482;9.160;2023-05-02T07:40:05;17.50;;;10.07;;
77769;SDS011;66961;51.482;9.160;2023-05-02T07:42:31;13.30;;;8.13;;
77769;SDS011;66961;51.482;9.160;2023-05-02T07:44:57;17.30;;;9.37;;
77769;SDS011;66961;51.482;9.160;2023-05-02T07:47:22;8.90;;;5.60;;
77769;SDS011;66961;51.482;9.160;2023-05-02T07:49:51;10.67;;;5.57;;
77769;SDS011;66961;51.482;9.160;2023-05-02T07:52:18;8.75;;;5.50;;
77769;SDS011;66961;51.482;9.160;2023-05-02T07:54:43;10.80;;;6.43;;
77769;SDS011;66961;51.482;9.160;2023-05-02T07:57:09;8.83;;;6.10;;
77769;SDS011;66961;51.482;9.160;2023-05-02T07:59:35;10.55;;;6.55;;
77769;SDS011;66961;51.482;9.160;2023-05-02T08:02:01;9.80;;;6.63;;
77769;SDS011;66961;51.482;9.160;2023-05-02T08:04:26;8.23;;;5.27;;
77769;SDS011;66961;51.482;9.160;2023-05-02T08:06:51;10.17;;;6.50;;
77769;SDS011;66961;51.482;9.160;2023-05-02T08:09:16;4.37;;;2.97;;
77769;SDS011;66961;51.482;9.160;2023-05-02T08:11:42;2.90;;;2.10;;
77769;SDS011;66961;51.482;9.160;2023-05-02T08:14:07;3.73;;;2.40;;
77769;SDS011;66961;51.482;9.160;2023-05-02T08:16:32;2.90;;;2.10;;
77769;SDS011;66961;51.482;9.160;2023-05-02T08:18:57;3.90;;;1.83;;
77769;SDS011;66961;51.482;9.160;2023-05-02T08:21:22;4.20;;;2.23;;
77769;SDS011;66961;51.482;9.160;2023-05-02T08:23:48;2.20;;;1.60;;
77769;SDS011;66961;51.482;9.160;2023-05-02T08:26:13;4.53;;;1.80;;
77769;SDS011;66961;51.482;9.160;2023-05-02T08:28:38;3.30;;;1.63;;
77769;SDS011;66961;51.482;9.160;2023-05-02T08:31:03;2.87;;;1.70;;
77769;SDS011;66961;51.482;9.160;2023-05-02T08:33:28;3.37;;;1.93;;
77769;SDS011;66961;51.482;9.160;2023-05-02T08:35:54;4.03;;;2.30;;
77769;SDS011;66961;51.482;9.160;2023-05-02T08:38:19;4.27;;;2.30;;
77769;SDS011;66961;51.482;9.160;2023-05-02T08:40:44;4.30;;;2.53;;
77769;SDS011;66961;51.482;9.160;2023-05-02T08:43:10;4.95;;;2.75;;
77769;SDS011;66961;51.482;9.160;2023-05-02T08:45:40;3.65;;;2.47;;
77769;SDS011;66961;51.482;9.160;2023-05-02T08:48:07;4.35;;;2.50;;
77769;SDS011;66961;51.482;9.160;2023-05-02T08:50:40;4.68;;;3.03;;
77769;SDS011;66961;51.482;9.160;2023-05-02T08:53:09;4.50;;;2.70;;
77769;SDS011;66961;51.482;9.160;2023-05-02T08:55:35;5.57;;;3.17;;
77769;SDS011;66961;51.482;9.160;2023-05-02T08:58:02;4.38;;;2.95;;
77769;SDS011;66961;51.482;9.160;2023-05-02T09:00:27;6.30;;;3.72;;
77769;SDS011;66961;51.482;9.160;2023-05-02T09:03:20;7.15;;;3.58;;
77769;SDS011;66961;51.482;9.160;2023-05-02T09:05:41;4.53;;;3.63;;
77769;SDS011;66961;51.482;9.160;2023-05-02T09:08:07;5.07;;;3.60;;
77769;SDS011;66961;51.482;9.160;2023-05-02T09:10:35;6.32;;;3.30;;
77769;SDS011;66961;51.482;9.160;2023-05-02T09:13:26;5.32;;;2.95;;
77769;SDS011;66961;51.482;9.160;2023-05-02T09:15:57;6.63;;;3.38;;
77769;SDS011;66961;51.482;9.160;2023-05-02T09:18:27;4.07;;;3.47;;
77769;SDS011;66961;51.482;9.160;2023-05-02T09:20:53;6.35;;;3.13;;
77769;SDS011;66961;51.482;9.160;2023-05-02T09:23:18;4.28;;;3.55;;
77769;SDS011;66961;51.482;9.160;2023-05-02T09:25:44;3.87;;;3.03;;
77769;SDS011;66961;51.482;9.160;2023-05-02T09:28:09;4.63;;;3.05;;
77769;SDS011;66961;51.482;9.160;2023-05-02T09:30:35;4.50;;;2.70;;
77769;SDS011;66961;51.482;9.160;2023-05-02T09:33:00;3.65;;;2.80;;
77769;SDS011;66961;51.482;9.160;2023-05-02T09:35:25;5.87;;;3.23;;
77769;SDS011;66961;51.482;9.160;2023-05-02T09:37:59;4.27;;;2.83;;
77769;SDS011;66961;51.482;9.160;2023-05-02T09:40:25;4.45;;;3.20;;
77769;SDS011;66961;51.482;9.160;2023-05-02T09:42:51;4.93;;;3.47;;
77769;SDS011;66961;51.482;9.160;2023-05-02T09:45:23;5.53;;;3.63;;
77769;SDS011;66961;51.482;9.160;2023-05-02T09:47:49;3.58;;;2.65;;
77769;SDS011;66961;51.482;9.160;2023-05-02T09:50:31;4.22;;;2.60;;
77769;SDS011;66961;51.482;9.160;2023-05-02T09:53:01;5.15;;;3.15;;
77769;SDS011;66961;51.482;9.160;2023-05-02T09:55:28;6.50;;;3.03;;
77769;SDS011;66961;51.482;9.160;2023-05-02T09:57:53;4.80;;;3.43;;
77769;SDS011;66961;51.482;9.160;2023-05-02T10:00:18;5.60;;;3.30;;
77769;SDS011;66961;51.482;9.160;2023-05-02T10:02:43;7.10;;;4.47;;
77769;SDS011;66961;51.482;9.160;2023-05-02T10:05:11;6.35;;;3.53;;
77769;SDS011;66961;51.482;9.160;2023-05-02T10:07:36;9.75;;;3.67;;
77769;SDS011;66961;51.482;9.160;2023-05-02T10:10:01;8.57;;;4.50;;
77769;SDS011;66961;51.482;9.160;2023-05-02T10:12:27;8.15;;;4.38;;
77769;SDS011;66961;51.482;9.160;2023-05-02T10:14:56;8.50;;;4.75;;
77769;SDS011;66961;51.482;9.160;2023-05-02T10:17:29;7.03;;;4.20;;
77769;SDS011;66961;51.482;9.160;2023-05-02T10:20:02;8.57;;;4.70;;
77769;SDS011;66961;51.482;9.160;2023-05-02T10:22:28;8.32;;;4.93;;
77769;SDS011;66961;51.482;9.160;2023-05-02T10:24:54;7.55;;;4.38;;
77769;SDS011;66961;51.482;9.160;2023-05-02T10:27:23;7.80;;;4.18;;
77769;SDS011;66961;51.482;9.160;2023-05-02T10:29:48;8.82;;;4.10;;
77769;SDS011;66961;51.482;9.160;2023-05-02T10:32:16;9.77;;;5.00;;
77769;SDS011;66961;51.482;9.160;2023-05-02T10:34:42;7.07;;;4.50;;
77769;SDS011;66961;51.482;9.160;2023-05-02T10:37:08;10.98;;;4.60;;
77769;SDS011;66961;51.482;9.160;2023-05-02T10:39:33;11.43;;;4.40;;
77769;SDS011;66961;51.482;9.160;2023-05-02T10:41:59;7.20;;;4.60;;
77769;SDS011;66961;51.482;9.160;2023-05-02T10:44:33;10.40;;;4.60;;
77769;SDS011;66961;51.482;9.160;2023-05-02T10:47:00;9.18;;;4.68;;
77769;SDS011;66961;51.482;9.160;2023-05-02T10:49:25;11.32;;;4.50;;
77769;SDS011;66961;51.482;9.160;2023-05-02T10:51:50;9.20;;;5.30;;
77769;SDS011;66961;51.482;9.160;2023-05-02T10:59:25;10.52;;;5.00;;
77769;SDS011;66961;51.482;9.160;2023-05-02T11:01:52;10.48;;;4.53;;
77769;SDS011;66961;51.482;9.160;2023-05-02T11:04:17;8.27;;;4.70;;
77769;SDS011;66961;51.482;9.160;2023-05-02T11:11:48;9.20;;;4.83;;
77769;SDS011;66961;51.482;9.160;2023-05-02T11:19:22;8.07;;;4.22;;
77769;SDS011;66961;51.482;9.160;2023-05-02T11:21:47;10.15;;;4.85;;
77769;SDS011;66961;51.482;9.160;2023-05-02T11:29:51;7.80;;;4.60;;
77769;SDS011;66961;51.482;9.160;2023-05-02T11:32:17;10.25;;;4.45;;
77769;SDS011;66961;51.482;9.160;2023-05-02T11:34:42;11.40;;;4.60;;
77769;SDS011;66961;51.482;9.160;2023-05-02T11:37:12;8.00;;;4.78;;
77769;SDS011;66961;51.482;9.160;2023-05-02T11:39:38;9.65;;;4.50;;
77769;SDS011;66961;51.482;9.160;2023-05-02T11:42:03;8.60;;;4.80;;
77769;SDS011;66961;51.482;9.160;2023-05-02T11:44:28;11.63;;;5.47;;
77769;SDS011;66961;51.482;9.160;2023-05-02T11:46:53;13.30;;;6.00;;
77769;SDS011;66961;51.482;9.160;2023-05-02T11:49:19;12.85;;;5.93;;
77769;SDS011;66961;51.482;9.160;2023-05-02T11:51:44;12.20;;;5.70;;
77769;SDS011;66961;51.482;9.160;2023-05-02T11:54:16;11.30;;;5.97;;
77769;SDS011;66961;51.482;9.160;2023-05-02T11:56:45;15.75;;;6.85;;
77769;SDS011;66961;51.482;9.160;2023-05-02T11:59:11;16.27;;;6.53;;
77769;SDS011;66961;51.482;9.160;2023-05-02T12:01:45;11.83;;;5.70;;
77769;SDS011;66961;51.482;9.160;2023-05-02T12:04:11;12.45;;;5.93;;
77769;SDS011;66961;51.482;9.160;2023-05-02T12:06:37;8.25;;;5.07;;
77769;SDS011;66961;51.482;9.160;2023-05-02T12:09:09;13.13;;;5.97;;
77769;SDS011;66961;51.482;9.160;2023-05-02T12:11:38;10.93;;;5.53;;
77769;SDS011;66961;51.482;9.160;2023-05-02T12:14:03;16.63;;;6.30;;
77769;SDS011;66961;51.482;9.160;2023-05-02T12:16:29;10.45;;;5.43;;
77769;SDS011;66961;51.482;9.160;2023-05-02T12:18:55;11.98;;;5.40;;
77769;SDS011;66961;51.482;9.160;2023-05-02T12:21:20;13.07;;;5.72;;
77769;SDS011;66961;51.482;9.160;2023-05-02T12:23:45;14.43;;;6.37;;
77769;SDS011;66961;51.482;9.160;2023-05-02T12:26:18;12.15;;;5.45;;
77769;SDS011;66961;51.482;9.160;2023-05-02T12:28:48;14.18;;;6.18;;
77769;SDS011;66961;51.482;9.160;2023-05-02T12:31:17;12.50;;;5.57;;
77769;SDS011;66961;51.482;9.160;2023-05-02T12:33:42;13.35;;;5.47;;
77769;SDS011;66961;51.482;9.160;2023-05-02T12:36:07;10.93;;;4.95;;
77769;SDS011;66961;51.482;9.160;2023-05-02T12:38:33;9.55;;;4.43;;
77769;SDS011;66961;51.482;9.160;2023-05-02T12:40:58;7.37;;;4.03;;
77769;SDS011;66961;51.482;9.160;2023-05-02T12:43:23;10.83;;;4.33;;
77769;SDS011;66961;51.482;9.160;2023-05-02T12:45:49;8.87;;;4.20;;
77769;SDS011;66961;51.482;9.160;2023-05-02T12:48:18;10.52;;;4.68;;
77769;SDS011;66961;51.482;9.160;2023-05-02T12:50:47;11.15;;;4.82;;
77769;SDS011;66961;51.482;9.160;2023-05-02T12:53:13;10.55;;;4.97;;
77769;SDS011;66961;51.482;9.160;2023-05-02T12:55:38;9.77;;;4.07;;
77769;SDS011;66961;51.482;9.160;2023-05-02T12:58:04;11.50;;;4.25;;
77769;SDS011;66961;51.482;9.160;2023-05-02T13:00:31;12.02;;;4.53;;
77769;SDS011;66961;51.482;9.160;2023-05-02T13:02:59;10.98;;;4.40;;
77769;SDS011;66961;51.482;9.160;2023-05-02T13:05:24;9.60;;;4.27;;
77769;SDS011;66961;51.482;9.160;2023-05-02T13:07:50;12.63;;;4.23;;
77769;SDS011;66961;51.482;9.160;2023-05-02T13:10:15;11.32;;;4.47;;
77769;SDS011;66961;51.482;9.160;2023-05-02T13:12:41;12.88;;;4.32;;
77769;SDS011;66961;51.482;9.160;2023-05-02T13:15:06;10.37;;;4.60;;
77769;SDS011;66961;51.482;9.160;2023-05-02T13:17:33;10.63;;;3.65;;
77769;SDS011;66961;51.482;9.160;2023-05-02T13:19:59;7.25;;;3.85;;
77769;SDS011;66961;51.482;9.160;2023-05-02T13:22:24;10.00;;;4.40;;
77769;SDS011;66961;51.482;9.160;2023-05-02T13:24:50;10.23;;;4.70;;
77769;SDS011;66961;51.482;9.160;2023-05-02T13:27:16;10.38;;;5.43;;
77769;SDS011;66961;51.482;9.160;2023-05-02T13:29:41;10.77;;;4.93;;
77769;SDS011;66961;51.482;9.160;2023-05-02T13:32:06;15.10;;;5.33;;
77769;SDS011;66961;51.482;9.160;2023-05-02T13:34:32;11.43;;;4.73;;
77769;SDS011;66961;51.482;9.160;2023-05-02T13:36:57;11.70;;;4.30;;
77769;SDS011;66961;51.482;9.160;2023-05-02T13:39:22;9.37;;;3.90;;
77769;SDS011;66961;51.482;9.160;2023-05-02T13:41:47;6.57;;;4.07;;
77769;SDS011;66961;51.482;9.160;2023-05-02T13:44:12;9.73;;;4.20;;
77769;SDS011;66961;51.482;9.160;2023-05-02T13:46:38;9.43;;;4.87;;
77769;SDS011;66961;51.482;9.160;2023-05-02T13:49:03;9.07;;;4.70;;
77769;SDS011;66961;51.482;9.160;2023-05-02T13:51:29;9.30;;;4.32;;
77769;SDS011;66961;51.482;9.160;2023-05-02T13:53:56;11.45;;;4.97;;
77769;SDS011;66961;51.482;9.160;2023-05-02T13:56:21;11.57;;;4.75;;
77769;SDS011;66961;51.482;9.160;2023-05-02T13:58:47;9.60;;;3.60;;
77769;SDS011;66961;51.482;9.160;2023-05-02T14:01:12;17.97;;;11.70;;
77769;SDS011;66961;51.482;9.160;2023-05-02T14:03:37;13.20;;;5.97;;
77769;SDS011;66961;51.482;9.160;2023-05-02T14:06:02;8.43;;;4.00;;
77769;SDS011;66961;51.482;9.160;2023-05-02T14:08:27;9.30;;;3.40;;
77769;SDS011;66961;51.482;9.160;2023-05-02T14:10:53;7.90;;;3.83;;
77769;SDS011;66961;51.482;9.160;2023-05-02T14:13:18;10.07;;;4.23;;
77769;SDS011;66961;51.482;9.160;2023-05-02T14:15:43;12.50;;;8.37;;
77769;SDS011;66961;51.482;9.160;2023-05-02T14:18:08;7.67;;;4.97;;
77769;SDS011;66961;51.482;9.160;2023-05-02T14:20:33;9.53;;;5.00;;
77769;SDS011;66961;51.482;9.160;2023-05-02T14:22:59;48.17;;;30.73;;
77769;SDS011;66961;51.482;9.160;2023-05-02T14:25:24;10.67;;;4.93;;
77769;SDS011;66961;51.482;9.160;2023-05-02T14:27:49;9.60;;;4.40;;
77769;SDS011;66961;51.482;9.160;2023-05-02T14:30:14;10.67;;;5.40;;
77769;SDS011;66961;51.482;9.160;2023-05-02T14:32:40;12.07;;;4.17;;
77769;SDS011;66961;51.482;9.160;2023-05-02T14:35:05;9.87;;;3.83;;
77769;SDS011;66961;51.482;9.160;2023-05-02T14:37:30;8.02;;;3.55;;
77769;SDS011;66961;51.482;9.160;2023-05-02T14:39:56;8.50;;;3.73;;
77769;SDS011;66961;51.482;9.160;2023-05-02T14:42:21;9.67;;;3.70;;
77769;SDS011;66961;51.482;9.160;2023-05-02T14:44:46;10.20;;;3.85;;
77769;SDS011;66961;51.482;9.160;2023-05-02T14:47:12;8.77;;;4.50;;
77769;SDS011;66961;51.482;9.160;2023-05-02T14:49:37;10.07;;;4.43;;
77769;SDS011;66961;51.482;9.160;2023-05-02T14:52:02;9.80;;;4.50;;
77769;SDS011;66961;51.482;9.160;2023-05-02T14:54:28;9.55;;;4.50;;
77769;SDS011;66961;51.482;9.160;2023-05-02T14:56:53;8.83;;;4.17;;
77769;SDS011;66961;51.482;9.160;2023-05-02T14:59:18;8.10;;;4.27;;
77769;SDS011;66961;51.482;9.160;2023-05-02T15:01:43;10.93;;;4.57;;
77769;SDS011;66961;51.482;9.160;2023-05-02T15:04:08;7.57;;;4.73;;
77769;SDS011;66961;51.482;9.160;2023-05-02T15:06:34;9.63;;;4.97;;
77769;SDS011;66961;51.482;9.160;2023-05-02T15:08:59;9.10;;;4.40;;
77769;SDS011;66961;51.482;9.160;2023-05-02T15:11:24;8.73;;;4.20;;
77769;SDS011;66961;51.482;9.160;2023-05-02T15:13:49;10.27;;;5.40;;
77769;SDS011;66961;51.482;9.160;2023-05-02T15:16:15;10.00;;;5.23;;
77769;SDS011;66961;51.482;9.160;2023-05-02T15:18:40;14.67;;;5.50;;
77769;SDS011;66961;51.482;9.160;2023-05-02T15:21:05;10.43;;;5.40;;